Time;durP1;ratioP1;P1;durP2;ratioP2;P2;SDS_P1;SDS_P2;PMS_P1;PMS_P2;Temp;Humidity;BMP_temperature;BMP_pressure;BME280_temperature;BME280_humidity;BME280_pressure;Samples;Min_cycle;Max_cycle;Signal;HPM_P1;HPM_P2
2022/05/18 00:00:57;;;;;;;7.85;6.30;;;19.00;99.90;;;;;;5053958;28;20236;-58
2022/05/18 00:03:31;;;;;;;8.48;6.72;;;19.00;99.90;;;;;;5054189;28;20198;-57
2022/05/18 00:06:00;;;;;;;8.23;6.05;;;19.00;99.90;;;;;;5035939;28;20297;-58
2022/05/18 00:08:26;;;;;;;10.40;6.68;;;19.00;99.90;;;;;;5053930;28;20176;-58
2022/05/18 00:10:52;;;;;;;7.43;6.22;;;19.00;99.90;;;;;;5054072;28;20318;-58
2022/05/18 00:13:18;;;;;;;8.38;6.15;;;18.90;99.90;;;;;;5053781;28;20624;-57
2022/05/18 00:15:45;;;;;;;7.97;6.15;;;18.90;99.90;;;;;;5053795;28;20278;-58
2022/05/18 00:18:11;;;;;;;6.82;6.00;;;18.90;99.90;;;;;;5053666;28;20248;-58
2022/05/18 00:20:36;;;;;;;7.72;6.30;;;18.90;99.90;;;;;;5036132;28;20219;-58
2022/05/18 00:23:04;;;;;;;10.23;7.07;;;18.90;99.90;;;;;;5053892;28;20179;-58
2022/05/18 00:25:33;;;;;;;9.15;6.20;;;18.80;99.90;;;;;;5053806;28;20202;-58
2022/05/18 00:28:00;;;;;;;7.15;5.68;;;18.80;99.90;;;;;;5053633;28;20175;-61
2022/05/18 00:30:27;;;;;;;7.68;6.30;;;18.80;99.90;;;;;;5053796;28;20693;-58
2022/05/18 00:32:53;;;;;;;8.73;6.28;;;18.70;99.90;;;;;;5053534;28;20179;-58
2022/05/18 00:35:20;;;;;;;9.80;6.40;;;18.80;99.90;;;;;;5054101;28;20175;-58
2022/05/18 00:37:46;;;;;;;7.97;6.22;;;18.70;99.90;;;;;;5053846;28;20179;-57
2022/05/18 00:40:14;;;;;;;8.73;6.45;;;18.70;99.90;;;;;;5053670;28;20195;-59
2022/05/18 00:42:40;;;;;;;9.15;6.40;;;18.70;99.90;;;;;;5053379;28;20171;-58
2022/05/18 00:45:07;;;;;;;7.20;6.20;;;18.70;99.90;;;;;;5053471;28;20214;-58
2022/05/18 00:47:32;;;;;;;8.25;6.43;;;18.70;99.90;;;;;;5053115;28;20678;-60
2022/05/18 00:50:24;;;;;;;8.85;5.90;;;18.80;99.90;;;;;;5053422;28;20172;-58
2022/05/18 00:52:58;;;;;;;7.72;6.05;;;18.70;99.90;;;;;;5042405;28;20186;-58
2022/05/18 00:55:25;;;;;;;8.52;6.22;;;18.80;99.90;;;;;;5053289;28;20201;-59
2022/05/18 00:58:07;;;;;;;9.02;6.80;;;18.70;99.90;;;;;;5053401;28;20171;-58
2022/05/18 01:00:34;;;;;;;8.63;5.93;;;18.80;99.90;;;;;;5053451;28;20183;-58
2022/05/18 01:03:10;;;;;;;7.97;6.63;;;18.70;99.90;;;;;;5053208;28;20637;-59
2022/05/18 01:05:39;;;;;;;9.23;6.60;;;18.70;99.90;;;;;;5052945;28;20201;-58
2022/05/18 01:08:05;;;;;;;8.75;6.07;;;18.80;99.90;;;;;;5053064;28;20253;-58
2022/05/18 01:10:31;;;;;;;7.38;6.22;;;18.80;99.90;;;;;;5035335;28;20226;-58
2022/05/18 01:12:59;;;;;;;7.22;5.80;;;18.80;99.90;;;;;;5035489;28;20186;-58
2022/05/18 01:15:25;;;;;;;7.68;6.18;;;18.90;99.90;;;;;;5053093;28;20198;-58
2022/05/18 01:17:54;;;;;;;8.23;5.35;;;18.90;99.90;;;;;;5053330;28;20175;-59
2022/05/18 01:20:22;;;;;;;6.65;4.88;;;18.90;99.90;;;;;;5052969;28;20171;-58
2022/05/18 01:23:10;;;;;;;7.97;5.97;;;18.90;99.90;;;;;;5052877;28;20260;-59
2022/05/18 01:26:13;;;;;;;5.82;4.93;;;18.80;99.90;;;;;;5052832;28;20214;-58
2022/05/18 01:28:42;;;;;;;6.78;5.40;;;18.90;99.90;;;;;;5052866;28;20647;-58
2022/05/18 01:31:08;;;;;;;9.38;6.63;;;18.90;99.90;;;;;;5053030;28;20183;-58
2022/05/18 01:33:35;;;;;;;6.45;5.05;;;18.80;99.90;;;;;;5053404;28;20168;-58
2022/05/18 01:36:01;;;;;;;6.80;6.05;;;18.90;99.90;;;;;;5052994;28;20186;-59
2022/05/18 01:38:27;;;;;;;8.63;6.35;;;18.90;99.90;;;;;;5052864;28;20179;-58
2022/05/18 01:41:05;;;;;;;7.45;5.00;;;18.90;99.90;;;;;;5052946;28;20182;-58
2022/05/18 01:43:41;;;;;;;7.10;5.07;;;19.00;99.90;;;;;;5052717;28;20687;-58
2022/05/18 01:46:10;;;;;;;5.72;4.90;;;19.10;99.90;;;;;;5052608;28;20195;-58
2022/05/18 01:48:40;;;;;;;7.60;5.28;;;19.00;99.90;;;;;;5053113;28;20690;-59
2022/05/18 01:51:06;;;;;;;7.63;5.22;;;19.10;99.90;;;;;;5052653;28;20270;-58
2022/05/18 01:53:34;;;;;;;6.32;5.25;;;19.00;99.90;;;;;;5052837;28;20186;-58
2022/05/18 01:56:00;;;;;;;8.38;6.03;;;19.10;99.90;;;;;;5052649;28;20217;-60
2022/05/18 01:58:26;;;;;;;7.88;5.60;;;19.00;99.90;;;;;;5052521;28;20176;-59
2022/05/18 02:00:52;;;;;;;7.20;5.03;;;19.00;99.90;;;;;;5052669;28;20210;-59
2022/05/18 02:03:20;;;;;;;7.18;5.15;;;19.00;99.90;;;;;;5052670;28;20168;-58
2022/05/18 02:05:45;;;;;;;8.23;5.85;;;19.10;99.90;;;;;;5052412;28;20195;-59
2022/05/18 02:08:15;;;;;;;8.23;5.93;;;19.10;99.90;;;;;;5052469;28;20183;-61
2022/05/18 02:10:41;;;;;;;7.55;5.65;;;19.10;99.90;;;;;;5052408;28;20225;-58
2022/05/18 02:13:07;;;;;;;6.65;5.85;;;19.10;99.90;;;;;;5052659;28;20663;-58
2022/05/18 02:15:34;;;;;;;9.18;6.38;;;19.00;99.90;;;;;;5052673;28;20182;-58
2022/05/18 02:18:00;;;;;;;8.65;6.18;;;19.00;99.90;;;;;;5053336;28;20650;-59
2022/05/18 02:20:26;;;;;;;7.82;5.30;;;19.00;99.90;;;;;;5056020;28;20183;-59
2022/05/18 02:22:52;;;;;;;7.70;5.72;;;18.90;99.90;;;;;;5056024;28;20250;-58
2022/05/18 02:25:19;;;;;;;8.65;6.10;;;18.90;99.90;;;;;;5055824;28;20303;-58
2022/05/18 02:27:46;;;;;;;7.50;5.13;;;18.90;99.90;;;;;;5056102;28;20206;-58
2022/05/18 02:30:13;;;;;;;9.75;5.68;;;18.90;99.90;;;;;;5038004;28;20215;-59
2022/05/18 02:32:38;;;;;;;6.68;4.80;;;18.90;99.90;;;;;;5055709;28;20172;-58
2022/05/18 02:35:05;;;;;;;8.23;6.00;;;18.90;99.90;;;;;;5037871;28;20229;-58
2022/05/18 02:37:32;;;;;;;7.82;5.90;;;18.90;99.90;;;;;;5055673;28;20183;-58
2022/05/18 02:39:58;;;;;;;6.93;4.90;;;18.90;99.90;;;;;;5037811;28;20190;-58
2022/05/18 02:42:23;;;;;;;8.98;5.82;;;18.90;99.90;;;;;;5055422;28;20632;-60
2022/05/18 02:44:49;;;;;;;6.97;5.32;;;18.90;99.90;;;;;;5055736;28;20175;-59
2022/05/18 02:47:15;;;;;;;7.20;5.65;;;18.90;99.90;;;;;;5055598;28;20262;-58
2022/05/18 02:49:41;;;;;;;8.43;5.43;;;18.90;99.90;;;;;;5055502;28;20175;-58
2022/05/18 02:52:07;;;;;;;7.28;5.85;;;18.80;99.90;;;;;;5055469;28;20262;-58
2022/05/18 02:57:19;;;;;;;6.88;5.90;;;18.80;99.90;;;;;;5055686;28;20190;-58
2022/05/18 02:59:45;;;;;;;8.20;5.75;;;18.70;99.90;;;;;;5038036;28;20175;-58
2022/05/18 03:02:11;;;;;;;7.18;4.97;;;18.70;99.90;;;;;;5055059;28;20201;-61
2022/05/18 03:04:37;;;;;;;8.00;5.55;;;18.60;99.90;;;;;;5037257;28;20205;-58
2022/05/18 03:07:03;;;;;;;7.70;5.75;;;18.60;99.90;;;;;;5037120;28;20215;-58
2022/05/18 03:09:29;;;;;;;7.80;5.70;;;18.60;99.90;;;;;;5055323;28;20232;-58
2022/05/18 03:11:56;;;;;;;7.47;5.68;;;18.50;99.90;;;;;;5055137;28;20175;-58
2022/05/18 03:14:22;;;;;;;6.38;5.43;;;18.50;99.90;;;;;;5037305;28;20171;-58
2022/05/18 03:16:49;;;;;;;7.85;5.25;;;18.50;99.90;;;;;;5055006;28;20179;-58
2022/05/18 03:19:15;;;;;;;6.38;5.07;;;18.50;99.90;;;;;;5055214;28;20186;-59
2022/05/18 03:24:26;;;;;;;6.63;5.13;;;18.50;99.90;;;;;;5055109;28;20310;-58
2022/05/18 03:26:52;;;;;;;6.22;5.20;;;18.50;99.90;;;;;;5054812;28;20203;-58
2022/05/18 03:29:18;;;;;;;8.32;5.57;;;18.60;99.90;;;;;;5054687;28;20270;-58
2022/05/18 03:31:44;;;;;;;8.02;5.95;;;18.60;99.90;;;;;;5054690;28;20187;-58
2022/05/18 03:34:10;;;;;;;6.97;4.70;;;18.60;99.90;;;;;;5054550;28;20178;-58
2022/05/18 03:36:36;;;;;;;7.07;5.65;;;18.70;99.90;;;;;;5036981;28;20175;-59
2022/05/18 03:39:02;;;;;;;6.95;5.13;;;18.70;99.90;;;;;;5036840;28;20172;-58
2022/05/18 03:41:28;;;;;;;7.88;5.53;;;18.70;99.90;;;;;;5054825;28;20222;-58
2022/05/18 03:43:53;;;;;;;8.05;5.97;;;18.70;99.90;;;;;;5054467;28;20175;-58
2022/05/18 03:46:19;;;;;;;7.38;5.10;;;18.80;99.90;;;;;;5036501;28;20207;-58
2022/05/18 03:48:45;;;;;;;9.15;5.85;;;18.80;99.90;;;;;;5054119;28;20183;-58
2022/05/18 03:51:13;;;;;;;6.20;4.90;;;18.70;99.90;;;;;;5054271;28;20175;-58
2022/05/18 03:53:38;;;;;;;8.38;5.07;;;18.70;99.90;;;;;;5036530;28;20183;-58
2022/05/18 03:56:04;;;;;;;5.95;4.88;;;18.70;99.90;;;;;;5054273;28;20205;-58
2022/05/18 03:58:30;;;;;;;8.00;5.40;;;18.70;99.90;;;;;;5054127;28;20178;-58
2022/05/18 04:01:01;;;;;;;6.93;5.63;;;18.70;99.90;;;;;;5053913;28;20195;-58
2022/05/18 04:03:29;;;;;;;6.45;4.85;;;18.70;99.90;;;;;;5054260;28;20203;-59
2022/05/18 04:05:55;;;;;;;7.78;5.07;;;18.70;99.90;;;;;;5054130;28;20683;-58
2022/05/18 04:08:21;;;;;;;5.13;4.47;;;18.70;99.90;;;;;;5054312;28;20214;-58
2022/05/18 04:10:47;;;;;;;7.68;4.60;;;18.70;99.90;;;;;;5053980;28;20210;-58
2022/05/18 04:13:20;;;;;;;11.80;4.68;;;18.70;99.90;;;;;;5053928;28;20186;-58
2022/05/18 04:15:46;;;;;;;7.25;4.57;;;18.70;99.90;;;;;;5053752;28;20182;-58
2022/05/18 04:18:12;;;;;;;5.97;4.97;;;18.70;99.90;;;;;;5054162;28;20697;-59
2022/05/18 04:20:38;;;;;;;5.90;4.80;;;18.70;99.90;;;;;;5053952;28;20167;-58
2022/05/18 04:23:05;;;;;;;8.20;4.80;;;18.70;99.90;;;;;;5053765;28;20326;-58
2022/05/18 04:25:31;;;;;;;6.38;4.22;;;18.80;99.90;;;;;;5053606;28;20226;-58
2022/05/18 04:27:57;;;;;;;5.97;4.10;;;18.80;99.90;;;;;;5035665;28;20272;-58
2022/05/18 04:30:26;;;;;;;5.95;4.45;;;18.80;99.90;;;;;;5053550;28;20183;-58
2022/05/18 04:32:52;;;;;;;5.22;4.10;;;18.80;99.90;;;;;;5053604;28;20171;-58
2022/05/18 04:35:21;;;;;;;5.45;4.10;;;18.80;99.90;;;;;;5053652;28;20171;-58
2022/05/18 04:37:47;;;;;;;6.82;4.22;;;18.90;99.90;;;;;;5053421;28;20636;-58
2022/05/18 04:40:13;;;;;;;3.55;3.15;;;18.90;99.90;;;;;;5035235;28;20175;-59
2022/05/18 04:42:39;;;;;;;4.15;3.40;;;18.90;99.90;;;;;;5053154;28;20294;-59
2022/05/18 04:45:07;;;;;;;4.03;2.60;;;18.90;99.90;;;;;;5053251;28;20644;-58
2022/05/18 04:47:33;;;;;;;4.22;2.70;;;19.00;99.90;;;;;;5053733;28;20167;-58
2022/05/18 04:49:59;;;;;;;3.75;2.70;;;19.00;99.90;;;;;;5053229;28;20225;-58
2022/05/18 04:52:25;;;;;;;4.00;2.47;;;19.00;99.90;;;;;;5053414;28;20505;-58
2022/05/18 04:54:51;;;;;;;3.65;2.38;;;19.00;99.90;;;;;;5053290;28;20171;-58
2022/05/18 04:57:17;;;;;;;2.45;2.10;;;19.00;99.90;;;;;;5053085;28;20179;-58
2022/05/18 04:59:44;;;;;;;4.30;2.65;;;19.10;99.90;;;;;;5053244;28;20168;-59
2022/05/18 05:02:09;;;;;;;2.45;2.25;;;19.20;99.90;;;;;;5052907;28;20274;-58
2022/05/18 05:04:36;;;;;;;2.90;2.47;;;19.20;99.90;;;;;;5035597;28;20301;-58
2022/05/18 05:07:03;;;;;;;3.38;2.47;;;19.30;99.90;;;;;;5052429;28;20203;-59
2022/05/18 05:09:29;;;;;;;3.13;2.25;;;19.40;99.90;;;;;;5052453;28;20200;-58
2022/05/18 05:11:56;;;;;;;3.03;2.25;;;19.40;99.90;;;;;;5053058;28;20575;-58
2022/05/18 05:14:22;;;;;;;3.33;2.90;;;19.40;99.90;;;;;;5053196;28;20175;-58
2022/05/18 05:16:49;;;;;;;3.63;2.90;;;19.30;99.90;;;;;;5053067;28;20266;-59
2022/05/18 05:19:16;;;;;;;3.28;2.60;;;19.30;99.90;;;;;;5053384;28;20175;-58
2022/05/18 05:21:42;;;;;;;3.65;3.15;;;19.30;99.90;;;;;;5052970;28;20224;-58
2022/05/18 05:24:16;;;;;;;4.55;2.78;;;19.20;99.90;;;;;;5052882;28;20171;-58
2022/05/18 05:26:42;;;;;;;5.13;3.35;;;19.20;99.90;;;;;;5052729;28;20202;-58
2022/05/18 05:29:10;;;;;;;3.92;2.83;;;19.10;99.90;;;;;;5053035;28;20210;-57
2022/05/18 05:31:36;;;;;;;3.33;2.70;;;19.10;99.90;;;;;;5053087;28;20179;-59
2022/05/18 05:34:03;;;;;;;3.75;2.90;;;19.00;99.90;;;;;;5052901;28;20203;-58
2022/05/18 05:36:29;;;;;;;4.32;3.25;;;19.00;99.90;;;;;;5052894;28;20186;-58
2022/05/18 05:38:55;;;;;;;4.65;3.22;;;18.90;99.90;;;;;;5052721;28;20175;-58
2022/05/18 05:41:21;;;;;;;5.20;3.67;;;18.90;99.90;;;;;;5052965;28;20312;-58
2022/05/18 05:43:47;;;;;;;5.38;3.80;;;18.90;99.90;;;;;;5052926;28;20179;-58
2022/05/18 05:46:13;;;;;;;6.63;3.85;;;19.00;99.90;;;;;;5052714;28;20675;-58
2022/05/18 05:48:42;;;;;;;5.30;3.63;;;19.00;99.90;;;;;;5052677;28;20309;-58
2022/05/18 05:51:12;;;;;;;5.03;3.95;;;19.20;99.90;;;;;;5053050;28;20167;-58
2022/05/18 05:53:39;;;;;;;6.55;3.88;;;19.30;99.90;;;;;;5054382;28;20198;-58
2022/05/18 05:56:06;;;;;;;4.82;3.78;;;19.40;99.90;;;;;;5056377;28;20636;-58
2022/05/18 05:58:33;;;;;;;4.38;3.55;;;19.50;99.90;;;;;;5056495;28;20163;-58
2022/05/18 06:00:59;;;;;;;5.20;3.45;;;19.50;99.90;;;;;;5056390;28;20218;-60
2022/05/18 06:03:26;;;;;;;4.75;3.95;;;19.70;99.90;;;;;;5056310;28;20250;-58
2022/05/18 06:05:52;;;;;;;5.25;3.72;;;19.80;99.90;;;;;;5056239;28;20210;-58
2022/05/18 06:08:18;;;;;;;4.65;3.40;;;20.00;99.90;;;;;;5056156;28;20575;-59
2022/05/18 06:10:44;;;;;;;4.47;3.22;;;20.20;99.90;;;;;;5056381;28;20171;-58
2022/05/18 06:13:11;;;;;;;3.88;2.70;;;20.40;99.90;;;;;;5056263;28;20210;-58
2022/05/18 06:15:38;;;;;;;3.55;2.50;;;20.40;99.90;;;;;;5056154;28;20175;-58
2022/05/18 06:18:04;;;;;;;2.28;1.70;;;20.40;99.90;;;;;;5056128;28;20175;-58
2022/05/18 06:20:30;;;;;;;1.77;1.50;;;20.40;99.90;;;;;;5055931;28;20656;-58
2022/05/18 06:22:58;;;;;;;1.50;1.40;;;20.40;99.90;;;;;;5055857;28;20167;-59
2022/05/18 06:25:23;;;;;;;2.17;1.20;;;20.50;99.90;;;;;;5055779;28;20554;-59
2022/05/18 06:27:49;;;;;;;1.50;1.20;;;20.60;99.90;;;;;;5056038;28;20178;-58
2022/05/18 06:30:15;;;;;;;1.00;0.90;;;20.70;99.90;;;;;;5055930;28;20640;-58
2022/05/18 06:32:41;;;;;;;1.35;0.80;;;20.80;99.90;;;;;;5055820;28;20266;-58
2022/05/18 06:35:07;;;;;;;2.58;1.08;;;20.80;99.90;;;;;;5056061;28;20565;-58
2022/05/18 06:37:33;;;;;;;0.80;0.80;;;21.00;99.90;;;;;;5055597;28;20172;-58
2022/05/18 06:39:59;;;;;;;0.88;0.75;;;21.00;99.90;;;;;;5056148;28;20181;-61
2022/05/18 06:42:24;;;;;;;0.98;0.60;;;21.00;99.90;;;;;;5055823;28;20175;-59
2022/05/18 06:44:50;;;;;;;1.05;0.88;;;21.20;99.90;;;;;;5055610;28;20175;-59
2022/05/18 06:47:16;;;;;;;0.95;0.70;;;21.20;99.90;;;;;;5055424;28;20241;-58
2022/05/18 06:49:43;;;;;;;0.65;0.60;;;21.30;99.90;;;;;;5055455;28;20175;-58
2022/05/18 06:52:09;;;;;;;0.57;0.57;;;21.40;99.90;;;;;;5055304;28;20620;-58
2022/05/18 06:54:36;;;;;;;1.00;0.70;;;21.50;99.90;;;;;;5055442;28;20179;-61
2022/05/18 06:57:02;;;;;;;0.50;0.50;;;21.40;99.90;;;;;;5037809;28;20182;-58
2022/05/18 06:59:27;;;;;;;0.98;0.50;;;21.50;99.90;;;;;;5055322;28;20171;-58
2022/05/18 07:01:53;;;;;;;0.95;0.63;;;21.50;99.90;;;;;;5055245;28;20202;-58
2022/05/18 07:04:19;;;;;;;0.55;0.50;;;21.30;99.90;;;;;;5055022;28;20321;-58
2022/05/18 07:06:45;;;;;;;0.60;0.60;;;21.30;99.90;;;;;;5055002;28;20632;-58
2022/05/18 07:09:21;;;;;;;0.45;0.45;;;21.20;99.90;;;;;;5055253;28;20667;-60
2022/05/18 07:11:49;;;;;;;0.63;0.43;;;21.40;99.90;;;;;;5055191;28;20167;-60
2022/05/18 07:14:19;;;;;;;0.50;0.50;;;21.50;99.90;;;;;;5055139;28;20217;-58
2022/05/18 07:16:45;;;;;;;0.82;0.60;;;21.60;99.90;;;;;;5054952;28;20180;-58
2022/05/18 07:19:11;;;;;;;0.25;0.25;;;21.90;99.90;;;;;;5054827;28;20213;-61
2022/05/18 07:21:37;;;;;;;1.02;0.57;;;22.20;99.90;;;;;;5055143;28;20179;-59
2022/05/18 07:24:03;;;;;;;0.35;0.35;;;22.30;99.90;;;;;;5054746;28;20171;-58
2022/05/18 07:26:29;;;;;;;0.98;0.43;;;22.10;99.90;;;;;;5054848;28;20207;-58
2022/05/18 07:28:56;;;;;;;0.70;0.60;;;22.00;99.90;;;;;;5054771;28;20743;-58
2022/05/18 07:31:21;;;;;;;0.50;0.50;;;22.30;99.90;;;;;;5054685;28;20175;-58
2022/05/18 07:33:47;;;;;;;0.75;0.40;;;22.50;99.90;;;;;;5036859;28;20179;-59
2022/05/18 07:36:17;;;;;;;0.63;0.60;;;22.60;99.90;;;;;;5054728;28;20225;-58
2022/05/18 07:38:43;;;;;;;0.50;0.50;;;22.60;99.90;;;;;;5054642;28;20175;-58
2022/05/18 07:41:11;;;;;;;1.23;0.47;;;22.30;99.90;;;;;;5054574;28;20183;-58
2022/05/18 07:43:37;;;;;;;0.50;0.50;;;22.40;99.90;;;;;;5054479;28;20179;-59
2022/05/18 07:46:03;;;;;;;1.40;0.80;;;22.60;99.90;;;;;;5054298;28;20199;-58
2022/05/18 07:48:29;;;;;;;0.40;0.40;;;22.80;99.90;;;;;;5054569;28;20221;-58
2022/05/18 07:50:57;;;;;;;0.50;0.50;;;22.90;99.90;;;;;;5054634;28;20175;-58
2022/05/18 07:53:23;;;;;;;0.50;0.40;;;23.10;99.60;;;;;;5054298;28;20198;-61
2022/05/18 07:55:49;;;;;;;0.60;0.40;;;23.20;99.00;;;;;;5054331;28;20644;-59
2022/05/18 07:58:17;;;;;;;0.60;0.40;;;23.20;99.20;;;;;;5054237;28;20171;-58
2022/05/18 08:00:43;;;;;;;0.30;0.30;;;23.20;99.10;;;;;;5054047;28;20202;-58
2022/05/18 08:03:09;;;;;;;0.63;0.50;;;23.10;99.20;;;;;;5054062;28;20264;-58
2022/05/18 08:05:36;;;;;;;0.20;0.20;;;23.20;99.50;;;;;;5054104;28;20684;-58
2022/05/18 08:08:12;;;;;;;1.05;0.40;;;23.40;99.50;;;;;;5054097;28;20228;-58
2022/05/18 08:16:07;;;;;;;0.40;0.40;;;23.40;98.00;;;;;;5053382;28;20217;-61
2022/05/18 08:18:33;;;;;;;0.32;0.30;;;23.30;97.90;;;;;;5053889;28;20183;-58
2022/05/18 08:20:59;;;;;;;0.40;0.40;;;23.50;98.20;;;;;;5036176;28;20549;-59
2022/05/18 08:23:25;;;;;;;0.40;0.40;;;23.70;97.20;;;;;;5053740;28;20175;-59
2022/05/18 08:25:54;;;;;;;0.30;0.30;;;23.50;98.00;;;;;;5053518;28;20195;-58
2022/05/18 08:28:20;;;;;;;0.30;0.20;;;23.90;95.50;;;;;;5036353;28;20186;-58
2022/05/18 08:30:45;;;;;;;0.28;0.28;;;24.10;95.60;;;;;;5053613;28;20187;-58
2022/05/18 08:33:11;;;;;;;0.90;0.45;;;24.20;95.40;;;;;;5035856;28;20517;-59
2022/05/18 08:35:38;;;;;;;0.38;0.30;;;24.10;95.10;;;;;;5053656;28;20197;-59
2022/05/18 08:38:04;;;;;;;0.28;0.28;;;24.20;95.50;;;;;;5053493;28;20173;-58
2022/05/18 08:40:30;;;;;;;0.40;0.40;;;24.30;95.10;;;;;;5053361;28;20266;-59
2022/05/18 08:42:57;;;;;;;0.45;0.45;;;24.40;93.90;;;;;;5053571;28;20196;-59
2022/05/18 08:45:26;;;;;;;0.32;0.32;;;24.40;94.00;;;;;;5053255;28;20171;-60
2022/05/18 08:48:09;;;;;;;1.38;0.30;;;24.40;94.00;;;;;;5035564;28;20199;-59
2022/05/18 08:50:37;;;;;;;0.43;0.43;;;24.60;93.80;;;;;;5053404;28;20167;-62
2022/05/18 08:53:32;;;;;;;0.50;0.47;;;24.70;93.70;;;;;;5053248;28;20202;-59
2022/05/18 08:56:24;;;;;;;0.40;0.40;;;24.60;93.60;;;;;;5017507;28;20187;-58
2022/05/18 08:58:52;;;;;;;0.65;0.40;;;24.70;93.90;;;;;;5053235;28;20250;-59
2022/05/18 09:01:37;;;;;;;0.30;0.30;;;24.90;93.80;;;;;;5053196;28;20556;-59
2022/05/18 09:04:13;;;;;;;0.30;0.30;;;25.00;93.50;;;;;;5053326;28;20242;-59
2022/05/18 09:06:50;;;;;;;0.20;0.20;;;25.20;93.00;;;;;;5053156;28;20233;-58
2022/05/18 09:12:13;;;;;;;0.40;0.40;;;24.90;93.50;;;;;;5053467;28;20647;-58
2022/05/18 09:14:42;;;;;;;0.55;0.40;;;24.70;92.10;;;;;;5053022;28;20167;-59
2022/05/18 09:17:08;;;;;;;0.85;0.30;;;24.90;92.70;;;;;;5053021;28;20214;-59
2022/05/18 09:19:45;;;;;;;0.40;0.40;;;24.90;93.30;;;;;;5053124;28;20523;-56
2022/05/18 09:22:40;;;;;;;0.40;0.30;;;24.80;92.90;;;;;;5052968;28;20628;-57
2022/05/18 09:25:33;;;;;;;0.40;0.40;;;24.70;92.80;;;;;;5053305;28;20163;-58
2022/05/18 09:28:23;;;;;;;0.40;0.30;;;25.00;92.70;;;;;;5055649;28;20179;-59
2022/05/18 09:31:12;;;;;;;0.95;0.50;;;25.20;93.30;;;;;;5056887;28;20593;-58
2022/05/18 09:33:38;;;;;;;0.30;0.30;;;25.00;92.70;;;;;;5057070;28;20198;-58
2022/05/18 09:36:03;;;;;;;0.40;0.40;;;25.10;93.30;;;;;;5056837;28;20202;-58
2022/05/18 09:38:36;;;;;;;0.50;0.50;;;25.30;92.70;;;;;;5056842;28;20171;-58
2022/05/18 09:41:04;;;;;;;0.45;0.45;;;24.90;92.50;;;;;;5057097;28;20155;-57
2022/05/18 09:43:35;;;;;;;0.45;0.45;;;25.00;93.40;;;;;;5056958;28;20520;-57
2022/05/18 09:46:01;;;;;;;0.60;0.47;;;25.30;92.60;;;;;;5056809;28;20253;-58
2022/05/18 09:48:39;;;;;;;0.98;0.57;;;25.20;92.20;;;;;;5056604;28;20239;-57
2022/05/18 09:51:07;;;;;;;0.30;0.30;;;25.60;92.80;;;;;;5056554;28;20640;-57
2022/05/18 09:53:32;;;;;;;0.32;0.28;;;25.80;92.60;;;;;;5056752;28;20232;-57
2022/05/18 09:55:58;;;;;;;0.30;0.30;;;26.00;92.00;;;;;;5056784;28;20649;-57
2022/05/18 09:58:32;;;;;;;0.73;0.43;;;26.30;92.10;;;;;;5056424;28;20692;-58
2022/05/18 10:09:25;;;;;;;0.40;0.40;;;26.50;91.90;;;;;;5056620;28;20240;-57
2022/05/18 10:11:52;;;;;;;0.40;0.30;;;26.70;91.60;;;;;;5056257;28;20183;-57
2022/05/18 10:14:30;;;;;;;0.32;0.32;;;26.70;91.40;;;;;;5056399;28;20206;-57
2022/05/18 10:17:01;;;;;;;0.35;0.25;;;26.70;90.90;;;;;;5056328;28;20178;-57
2022/05/18 10:19:33;;;;;;;0.65;0.55;;;27.10;90.90;;;;;;5056099;28;20513;-57
2022/05/18 10:22:06;;;;;;;1.75;0.45;;;26.70;90.10;;;;;;5055947;28;20238;-58
2022/05/18 10:24:48;;;;;;;0.93;0.50;;;26.50;90.80;;;;;;5055996;28;20172;-57
2022/05/18 10:27:13;;;;;;;1.00;0.60;;;26.10;91.20;;;;;;5055954;28;20207;-57
2022/05/18 10:29:40;;;;;;;0.43;0.43;;;26.30;91.50;;;;;;5055819;28;20180;-57
2022/05/18 10:32:19;;;;;;;0.55;0.50;;;26.50;90.90;;;;;;5055956;28;20322;-57
2022/05/18 10:34:47;;;;;;;0.40;0.40;;;26.20;89.60;;;;;;5055799;28;20221;-58
2022/05/18 10:37:23;;;;;;;0.40;0.35;;;26.20;91.00;;;;;;5055581;28;20183;-58
2022/05/18 10:39:49;;;;;;;1.13;0.70;;;26.40;91.40;;;;;;5055289;28;20213;-58
2022/05/18 10:42:23;;;;;;;0.80;0.50;;;26.50;90.90;;;;;;5055794;28;20272;-58
2022/05/18 10:44:49;;;;;;;0.47;0.47;;;26.70;91.20;;;;;;5055669;28;20639;-58
2022/05/18 10:47:30;;;;;;;0.60;0.60;;;26.40;90.50;;;;;;5055446;28;20252;-58
2022/05/18 10:50:24;;;;;;;0.65;0.40;;;26.60;90.90;;;;;;5055783;28;20189;-58
2022/05/18 10:53:00;;;;;;;1.80;0.60;;;26.30;91.00;;;;;;5055549;28;20175;-57
2022/05/18 10:55:28;;;;;;;0.40;0.40;;;26.30;92.30;;;;;;5055454;28;20163;-57
2022/05/18 10:58:00;;;;;;;0.40;0.40;;;26.50;91.70;;;;;;5055250;28;20174;-58
2022/05/18 11:00:35;;;;;;;1.00;0.70;;;26.70;91.90;;;;;;5055567;28;20187;-58
2022/05/18 11:03:09;;;;;;;0.60;0.50;;;26.50;91.40;;;;;;5055267;28;20175;-58
2022/05/18 11:05:55;;;;;;;1.17;0.77;;;26.40;90.90;;;;;;5055263;28;20222;-57
2022/05/18 11:08:24;;;;;;;0.63;0.63;;;26.80;91.50;;;;;;5055128;28;20175;-58
2022/05/18 11:11:09;;;;;;;0.60;0.60;;;26.80;90.50;;;;;;5055535;28;20176;-58
2022/05/18 11:14:12;;;;;;;0.40;0.40;;;26.60;91.40;;;;;;5055190;28;20175;-60
2022/05/18 11:17:24;;;;;;;0.47;0.45;;;26.40;91.10;;;;;;5054932;28;20178;-58
2022/05/18 11:20:11;;;;;;;0.40;0.40;;;26.80;92.30;;;;;;5010566;28;20245;-57
2022/05/18 11:22:53;;;;;;;0.40;0.40;;;26.50;90.40;;;;;;5055140;28;20218;-58
2022/05/18 11:25:43;;;;;;;0.93;0.50;;;26.80;91.50;;;;;;5055006;28;20260;-57
2022/05/18 11:28:28;;;;;;;0.52;0.47;;;26.80;90.40;;;;;;5054996;28;20171;-57
2022/05/18 11:31:22;;;;;;;0.50;0.40;;;27.00;91.40;;;;;;5055037;28;20178;-58
2022/05/18 11:34:07;;;;;;;0.88;0.60;;;27.10;91.10;;;;;;5046921;28;20188;-58
2022/05/18 11:36:54;;;;;;;0.50;0.50;;;27.10;90.40;;;;;;5054703;28;20171;-58
2022/05/18 11:39:49;;;;;;;0.47;0.45;;;26.80;90.70;;;;;;5054561;28;20174;-58
2022/05/18 11:42:24;;;;;;;2.00;0.82;;;26.70;91.10;;;;;;5054907;28;20258;-58
2022/05/18 11:45:07;;;;;;;0.50;0.50;;;26.70;91.20;;;;;;5054561;28;20221;-58
2022/05/18 11:48:01;;;;;;;1.02;0.55;;;26.80;90.70;;;;;;5054455;28;20252;-57
2022/05/18 11:50:49;;;;;;;1.27;0.70;;;27.00;91.40;;;;;;5054498;28;20219;-57
2022/05/18 11:53:33;;;;;;;0.95;0.75;;;26.80;91.00;;;;;;5054577;28;20246;-58
2022/05/18 11:56:06;;;;;;;2.95;0.80;;;26.80;90.10;;;;;;5054325;28;20176;-58
2022/05/18 11:59:01;;;;;;;1.38;0.68;;;26.70;90.80;;;;;;5054398;28;20191;-58
2022/05/18 12:01:55;;;;;;;1.25;0.70;;;26.20;90.70;;;;;;5054000;28;20231;-57
2022/05/18 12:04:26;;;;;;;0.70;0.70;;;25.90;91.30;;;;;;5054146;28;20547;-58
2022/05/18 12:07:19;;;;;;;0.88;0.57;;;25.70;91.80;;;;;;5054140;28;20199;-58
2022/05/18 12:10:16;;;;;;;0.80;0.80;;;25.20;92.20;;;;;;5054031;28;20211;-58
2022/05/18 12:13:15;;;;;;;0.70;0.70;;;25.40;92.20;;;;;;5053911;28;20167;-58
2022/05/18 12:15:48;;;;;;;0.82;0.75;;;25.80;92.40;;;;;;5054167;28;20217;-58
2022/05/18 12:18:44;;;;;;;1.58;0.80;;;26.10;91.80;;;;;;5054181;28;20270;-58
2022/05/18 12:21:38;;;;;;;1.23;0.90;;;26.20;91.50;;;;;;5053683;28;20528;-57
2022/05/18 12:24:06;;;;;;;1.30;0.90;;;26.30;91.60;;;;;;5049566;28;20711;-58
2022/05/18 12:26:35;;;;;;;0.73;0.70;;;26.70;92.40;;;;;;5053739;28;20207;-58
2022/05/18 12:29:04;;;;;;;1.92;0.82;;;27.10;91.10;;;;;;5053634;28;20179;-58
2022/05/18 12:31:30;;;;;;;0.80;0.70;;;27.00;90.90;;;;;;5053488;28;20183;-58
2022/05/18 12:34:14;;;;;;;1.10;0.73;;;27.00;91.00;;;;;;5053767;28;20175;-58
2022/05/18 12:36:45;;;;;;;0.82;0.75;;;27.20;91.30;;;;;;5053610;28;20243;-58
2022/05/18 12:39:17;;;;;;;1.35;0.90;;;27.40;90.90;;;;;;5053464;28;20182;-60
2022/05/18 12:41:56;;;;;;;0.85;0.70;;;27.10;90.90;;;;;;5053511;28;20167;-57
2022/05/18 12:44:23;;;;;;;0.95;0.75;;;27.30;90.50;;;;;;5053698;28;20175;-58
2022/05/18 12:46:55;;;;;;;0.85;0.80;;;27.30;91.50;;;;;;5053440;28;20199;-58
2022/05/18 12:49:34;;;;;;;0.95;0.85;;;27.50;90.70;;;;;;5053343;28;20179;-57
2022/05/18 12:52:12;;;;;;;0.73;0.73;;;27.20;90.40;;;;;;5053292;28;20661;-57
2022/05/18 12:54:54;;;;;;;0.85;0.82;;;27.50;91.50;;;;;;5053229;28;20163;-58
2022/05/18 12:57:42;;;;;;;0.70;0.70;;;27.70;90.00;;;;;;5053783;28;20202;-58
2022/05/18 13:00:20;;;;;;;0.90;0.85;;;27.60;90.60;;;;;;5052955;28;20269;-57
2022/05/18 13:02:57;;;;;;;0.77;0.60;;;27.30;90.10;;;;;;5052930;28;20241;-58
2022/05/18 13:05:25;;;;;;;0.82;0.70;;;27.10;90.30;;;;;;5053241;28;20228;-57
2022/05/18 13:07:59;;;;;;;1.20;0.75;;;27.10;91.10;;;;;;5053195;28;20579;-58
2022/05/18 13:10:32;;;;;;;1.00;0.60;;;27.20;90.50;;;;;;5053163;28;20523;-58
2022/05/18 13:13:17;;;;;;;0.60;0.60;;;27.00;90.80;;;;;;5053006;28;20179;-58
2022/05/18 13:15:56;;;;;;;1.92;0.80;;;27.20;91.20;;;;;;5053023;28;20620;-58
2022/05/18 13:18:33;;;;;;;1.08;0.52;;;27.30;90.70;;;;;;5053134;28;20163;-58
2022/05/18 13:21:17;;;;;;;1.00;0.80;;;27.30;90.50;;;;;;5053403;28;20612;-58
2022/05/18 13:24:04;;;;;;;0.70;0.70;;;27.10;90.50;;;;;;5052897;28;20571;-57
2022/05/18 13:26:49;;;;;;;1.73;0.90;;;27.20;89.70;;;;;;5052942;28;20214;-58